createdAt,value
2018-07-22T00:00:21.057Z,9.83
2018-07-22T00:02:49.480Z,10.27
2018-07-22T00:05:18.009Z,9.33
2018-07-22T00:07:46.487Z,10.03
2018-07-22T00:10:22.105Z,11.43
2018-07-22T00:12:51.187Z,10.30
2018-07-22T00:15:20.058Z,11.43
2018-07-22T00:17:48.560Z,11.40
2018-07-22T00:20:17.261Z,12.50
2018-07-22T00:22:45.959Z,13.60
2018-07-22T00:25:14.816Z,15.20
2018-07-22T00:27:43.390Z,13.83
2018-07-22T00:30:11.822Z,17.00
2018-07-22T00:32:42.572Z,18.87
2018-07-22T00:35:12.577Z,23.00
2018-07-22T00:37:41.524Z,22.30
2018-07-22T00:40:12.526Z,25.93
2018-07-22T00:42:40.984Z,24.90
2018-07-22T00:45:13.042Z,26.87
2018-07-22T00:47:42.149Z,26.93
2018-07-22T00:50:10.812Z,27.87
2018-07-22T00:52:40.125Z,27.00
2018-07-22T00:55:08.625Z,28.50
2018-07-22T00:57:37.173Z,27.80
2018-07-22T01:00:06.314Z,28.57
2018-07-22T01:02:34.709Z,30.13
2018-07-22T01:05:03.237Z,30.90
2018-07-22T01:07:31.705Z,33.83
2018-07-22T01:10:00.158Z,30.50
2018-07-22T01:12:28.731Z,32.20
2018-07-22T01:14:57.279Z,34.53
2018-07-22T01:17:25.781Z,32.90
2018-07-22T01:19:54.451Z,35.40
2018-07-22T01:22:22.949Z,32.37
2018-07-22T01:24:51.418Z,36.23
2018-07-22T01:27:20.010Z,37.40
2018-07-22T01:29:48.401Z,36.97
2018-07-22T01:32:16.935Z,38.17
2018-07-22T01:34:45.425Z,40.77
2018-07-22T01:37:14.636Z,37.50
2018-07-22T01:39:43.106Z,39.30
2018-07-22T01:42:11.254Z,38.80
2018-07-22T01:44:39.712Z,41.73
2018-07-22T01:47:08.280Z,43.33
2018-07-22T01:49:36.781Z,44.50
2018-07-22T01:52:05.274Z,42.03
2018-07-22T01:54:33.735Z,42.33
2018-07-22T01:57:02.266Z,42.43
2018-07-22T01:59:30.724Z,44.73
2018-07-22T02:01:59.262Z,45.53
2018-07-22T02:04:27.693Z,48.27
2018-07-22T02:06:55.930Z,48.63
2018-07-22T02:09:24.436Z,47.27
2018-07-22T02:11:53.021Z,47.23
2018-07-22T02:14:21.686Z,45.10
2018-07-22T02:16:50.154Z,46.13
2018-07-22T02:19:18.697Z,43.33
2018-07-22T02:21:47.221Z,44.50
2018-07-22T02:24:15.790Z,43.97
2018-07-22T02:26:44.303Z,44.53
2018-07-22T02:29:13.068Z,42.47
2018-07-22T02:31:41.517Z,42.50
2018-07-22T02:34:10.027Z,45.30
2018-07-22T02:36:38.553Z,41.77
2018-07-22T02:39:09.077Z,41.00
2018-07-22T02:41:37.545Z,42.83
2018-07-22T02:44:06.030Z,41.07
2018-07-22T02:46:34.659Z,38.73
2018-07-22T02:49:03.153Z,40.97
2018-07-22T02:51:31.832Z,43.63
2018-07-22T02:54:00.278Z,47.47
2018-07-22T02:56:29.450Z,42.93
2018-07-22T02:58:58.066Z,49.20
2018-07-22T03:01:27.376Z,46.53
2018-07-22T03:03:55.875Z,42.87
2018-07-22T03:06:24.469Z,43.33
2018-07-22T03:08:53.089Z,40.90
2018-07-22T03:11:21.582Z,41.57
2018-07-22T03:13:50.078Z,41.23
2018-07-22T03:16:18.522Z,39.70
2018-07-22T03:18:47.063Z,42.67
2018-07-22T03:21:15.580Z,43.97
2018-07-22T03:23:44.060Z,44.80
2018-07-22T03:26:13.342Z,44.77
2018-07-22T03:28:41.938Z,46.00
2018-07-22T03:31:10.430Z,45.17
2018-07-22T03:33:38.587Z,46.50
2018-07-22T03:36:07.777Z,44.47
2018-07-22T03:38:36.255Z,47.63
2018-07-22T03:41:05.500Z,44.57
2018-07-22T03:43:33.967Z,43.07
2018-07-22T03:46:02.459Z,44.53
2018-07-22T03:48:30.970Z,42.27
2018-07-22T03:50:59.462Z,43.50
2018-07-22T03:53:27.945Z,46.00
2018-07-22T03:55:56.430Z,43.53
2018-07-22T03:58:24.928Z,44.37
2018-07-22T04:00:53.438Z,43.23
2018-07-22T04:03:21.951Z,41.70
2018-07-22T04:05:50.408Z,41.33
2018-07-22T04:08:18.960Z,37.10
2018-07-22T04:10:47.113Z,39.27
2018-07-22T04:13:15.594Z,38.57
2018-07-22T04:15:44.039Z,40.00
2018-07-22T04:18:12.501Z,40.03
2018-07-22T04:20:41.077Z,37.77
2018-07-22T04:23:09.547Z,40.60
2018-07-22T04:25:38.018Z,37.23
2018-07-22T04:28:06.571Z,36.90
2018-07-22T04:30:34.801Z,37.30
2018-07-22T04:33:03.253Z,39.30
2018-07-22T04:35:31.752Z,36.23
2018-07-22T04:38:00.284Z,34.77
2018-07-22T04:40:29.457Z,34.67
2018-07-22T04:42:58.013Z,34.80
2018-07-22T04:45:26.494Z,35.73
2018-07-22T04:47:54.976Z,34.13
2018-07-22T04:50:23.497Z,34.40
2018-07-22T04:52:52.045Z,33.47
2018-07-22T04:55:20.556Z,31.97
2018-07-22T04:57:49.016Z,31.50
2018-07-22T05:00:17.473Z,31.83
2018-07-22T05:02:45.992Z,28.27
2018-07-22T05:05:14.494Z,31.70
2018-07-22T05:07:42.982Z,31.10
2018-07-22T05:10:11.476Z,28.47
2018-07-22T05:12:39.977Z,29.03
2018-07-22T05:15:08.590Z,29.83
2018-07-22T05:17:37.133Z,28.83
2018-07-22T05:20:05.620Z,28.90
2018-07-22T05:22:34.106Z,29.67
2018-07-22T05:25:02.630Z,29.50
2018-07-22T05:27:31.064Z,28.50
2018-07-22T05:29:59.565Z,26.63
2018-07-22T05:32:28.084Z,27.23
2018-07-22T05:34:56.652Z,27.77
2018-07-22T05:37:25.140Z,28.07
2018-07-22T05:39:53.302Z,26.03
2018-07-22T05:42:21.767Z,25.07
2018-07-22T05:44:50.802Z,23.33
2018-07-22T05:47:19.339Z,21.43
2018-07-22T05:49:47.840Z,20.37
2018-07-22T05:52:16.971Z,19.97
2018-07-22T05:54:45.698Z,18.90
2018-07-22T05:57:14.263Z,17.63
2018-07-22T05:59:42.776Z,15.80
2018-07-22T06:02:11.269Z,16.93
2018-07-22T06:04:39.737Z,15.87
2018-07-22T06:07:09.243Z,15.83
2018-07-22T06:09:37.737Z,14.70
2018-07-22T06:12:06.365Z,14.73
2018-07-22T06:14:34.915Z,14.57
2018-07-22T06:17:03.473Z,14.13
2018-07-22T06:19:32.069Z,12.53
2018-07-22T06:22:00.567Z,12.87
2018-07-22T06:24:29.162Z,11.57
2018-07-22T06:26:57.356Z,10.20
2018-07-22T06:29:25.868Z,9.77
2018-07-22T06:31:54.422Z,10.13
2018-07-22T06:34:22.935Z,8.87
2018-07-22T06:36:51.456Z,9.73
2018-07-22T06:39:19.918Z,10.67
2018-07-22T06:41:48.390Z,10.47
2018-07-22T06:44:17.218Z,9.07
2018-07-22T06:46:45.940Z,9.83
2018-07-22T06:49:15.219Z,9.53
2018-07-22T06:51:43.819Z,8.87
2018-07-22T06:54:12.399Z,8.67
2018-07-22T06:56:40.937Z,9.07
2018-07-22T06:59:09.158Z,8.47
2018-07-22T07:01:37.350Z,7.77
2018-07-22T07:04:05.864Z,8.90
2018-07-22T07:06:34.394Z,8.53
2018-07-22T07:09:03.003Z,7.80
2018-07-22T07:11:31.597Z,7.53
2018-07-22T07:14:00.179Z,8.07
2018-07-22T07:16:28.842Z,7.80
2018-07-22T07:18:57.319Z,7.20
2018-07-22T07:21:25.879Z,7.40
2018-07-22T07:23:54.448Z,8.33
2018-07-22T07:26:22.976Z,9.40
2018-07-22T07:28:53.210Z,9.40
2018-07-22T07:31:21.703Z,8.37
2018-07-22T07:33:50.156Z,8.10
2018-07-22T07:36:18.671Z,8.70
2018-07-22T07:38:47.248Z,10.27
2018-07-22T07:41:15.746Z,8.47
2018-07-22T07:43:44.369Z,8.87
2018-07-22T07:46:12.914Z,9.87
2018-07-22T07:48:42.118Z,9.37
2018-07-22T07:51:10.765Z,11.87
2018-07-22T07:53:39.710Z,10.63
2018-07-22T07:56:08.185Z,10.53
2018-07-22T07:58:37.289Z,8.83
2018-07-22T08:01:05.834Z,8.17
2018-07-22T08:03:34.338Z,8.67
2018-07-22T08:06:02.828Z,7.70
2018-07-22T08:08:31.719Z,9.07
2018-07-22T08:11:00.326Z,8.17
2018-07-22T08:13:28.995Z,8.77
2018-07-22T08:15:57.767Z,7.83
2018-07-22T08:18:26.956Z,8.17
2018-07-22T08:20:55.548Z,7.43
2018-07-22T08:23:24.084Z,7.50
2018-07-22T08:25:52.843Z,8.10
2018-07-22T08:28:32.607Z,6.60
2018-07-22T08:31:01.164Z,6.53
2018-07-22T08:33:29.821Z,6.57
2018-07-22T08:35:58.356Z,5.77
2018-07-22T08:38:27.577Z,5.77
2018-07-22T08:40:56.387Z,5.73
2018-07-22T08:43:24.603Z,5.87
2018-07-22T08:45:53.223Z,5.60
2018-07-22T08:48:21.709Z,5.13
2018-07-22T08:50:50.316Z,5.33
2018-07-22T08:53:18.900Z,4.77
2018-07-22T08:55:47.419Z,5.03
2018-07-22T08:58:15.858Z,4.73
2018-07-22T09:00:44.318Z,5.87
2018-07-22T09:03:12.969Z,5.43
2018-07-22T09:05:41.480Z,4.67
2018-07-22T09:08:10.112Z,4.10
2018-07-22T09:10:38.545Z,4.53
2018-07-22T09:13:07.034Z,5.13
2018-07-22T09:15:35.586Z,4.50
2018-07-22T09:18:04.134Z,5.10
2018-07-22T09:20:32.610Z,6.50
2018-07-22T09:23:01.216Z,5.63
2018-07-22T09:25:29.733Z,4.87
2018-07-22T09:27:58.317Z,4.70
2018-07-22T09:30:26.917Z,4.60
2018-07-22T09:32:55.500Z,4.50
2018-07-22T09:35:24.100Z,4.80
2018-07-22T09:37:52.626Z,4.50
2018-07-22T09:40:21.215Z,4.40
2018-07-22T09:42:50.001Z,4.57
2018-07-22T09:45:18.518Z,4.53
2018-07-22T09:47:47.066Z,5.37
2018-07-22T09:50:15.575Z,4.90
2018-07-22T09:52:43.990Z,5.40
2018-07-22T09:55:12.505Z,4.90
2018-07-22T09:57:40.986Z,5.30
2018-07-22T10:00:09.478Z,5.37
2018-07-22T10:02:38.009Z,5.10
2018-07-22T10:05:06.521Z,6.00
2018-07-22T10:07:35.016Z,6.00
2018-07-22T10:10:03.465Z,6.37
2018-07-22T10:12:31.985Z,6.83
2018-07-22T10:15:00.473Z,7.70
2018-07-22T10:17:29.070Z,6.47
2018-07-22T10:19:57.500Z,6.83
2018-07-22T10:22:25.999Z,7.73
2018-07-22T10:24:54.457Z,8.43
2018-07-22T10:27:22.991Z,8.40
2018-07-22T10:29:51.501Z,7.77
2018-07-22T10:32:20.169Z,8.07
2018-07-22T10:34:49.595Z,7.73
2018-07-22T10:37:18.097Z,7.83
2018-07-22T10:39:46.561Z,7.57
2018-07-22T10:42:15.121Z,7.40
2018-07-22T10:44:43.692Z,6.77
2018-07-22T10:47:12.239Z,6.33
2018-07-22T10:49:40.861Z,6.00
2018-07-22T10:52:09.364Z,6.30
2018-07-22T10:54:37.896Z,5.10
2018-07-22T10:57:06.485Z,5.73
2018-07-22T10:59:35.177Z,5.00
2018-07-22T11:02:03.648Z,5.30
